Time;durP1;ratioP1;P1;durP2;ratioP2;P2;SDS_P1;SDS_P2;PMS_P1;PMS_P2;Temp;Humidity;BMP_temperature;BMP_pressure;BME280_temperature;BME280_humidity;BME280_pressure;Samples;Min_cycle;Max_cycle;Signal;HPM_P1;HPM_P2
2022/03/07 00:00:03;;;;;;;16.98;11.27;;;;;;;-1.64;78.24;101832.91;674201;29;1581;-78
2022/03/07 00:00:26;;;;;;;15.25;10.52;;;;;;;-1.67;77.19;101830.16;674826;29;4317;-76
2022/03/07 00:00:48;;;;;;;14.15;9.68;;;;;;;-1.71;76.79;101840.19;678950;28;947;-76
2022/03/07 00:01:09;;;;;;;13.63;9.60;;;;;;;-1.75;75.99;101837.34;679237;28;1355;-77
2022/03/07 00:01:30;;;;;;;14.30;9.63;;;;;;;-1.80;76.36;101831.94;678316;29;3314;-77
2022/03/07 00:01:53;;;;;;;13.80;9.25;;;;;;;-1.83;76.78;101831.72;677922;28;3658;-76
2022/03/07 00:02:14;;;;;;;13.82;9.35;;;;;;;-1.86;76.77;101841.78;679542;28;1905;-76
2022/03/07 00:02:34;;;;;;;13.13;9.48;;;;;;;-1.88;76.85;101838.25;677369;29;842;-76
2022/03/07 00:02:55;;;;;;;13.40;9.35;;;;;;;-1.90;76.58;101839.81;677923;29;1252;-76
2022/03/07 00:03:15;;;;;;;12.97;9.07;;;;;;;-1.88;76.99;101838.25;676706;29;4303;-76
2022/03/07 00:03:39;;;;;;;12.80;9.27;;;;;;;-1.90;77.42;101834.69;680471;29;1205;-79
2022/03/07 00:04:02;;;;;;;12.52;9.10;;;;;;;-1.90;76.98;101835.59;677290;29;1274;-79
2022/03/07 00:04:22;;;;;;;12.77;8.93;;;;;;;-1.82;75.90;101842.88;671728;29;2252;-79
2022/03/07 00:04:43;;;;;;;13.07;9.40;;;;;;;-1.76;76.32;101833.00;673514;29;2906;-79
2022/03/07 00:05:06;;;;;;;13.45;9.30;;;;;;;-1.68;75.74;101843.75;672810;29;2227;-76
2022/03/07 00:05:27;;;;;;;12.68;9.18;;;;;;;-1.64;75.64;101835.47;675567;29;1689;-76
2022/03/07 00:05:47;;;;;;;12.25;8.95;;;;;;;-1.63;76.28;101839.81;679034;28;2377;-77
2022/03/07 00:06:08;;;;;;;13.50;9.10;;;;;;;-1.58;75.66;101844.44;680507;28;4295;-76
2022/03/07 00:06:28;;;;;;;12.77;9.17;;;;;;;-1.58;76.79;101851.25;682526;28;1068;-79
2022/03/07 00:06:49;;;;;;;11.68;8.57;;;;;;;-1.60;76.51;101837.44;680310;29;1260;-78
2022/03/07 00:07:09;;;;;;;11.63;8.75;;;;;;;-1.61;75.81;101833.09;681062;28;1266;-80
2022/03/07 00:07:33;;;;;;;11.80;8.70;;;;;;;-1.62;76.21;101836.44;682179;28;1032;-79
2022/03/07 00:07:53;;;;;;;13.38;8.40;;;;;;;-1.57;74.89;101837.63;681190;28;3051;-79
2022/03/07 00:08:17;;;;;;;12.43;8.83;;;;;;;-1.55;74.69;101834.38;681791;28;1721;-79
2022/03/07 00:08:38;;;;;;;11.73;8.80;;;;;;;-1.56;77.49;101836.84;678943;29;2382;-79
2022/03/07 00:08:58;;;;;;;12.13;8.82;;;;;;;-1.55;76.52;101854.03;680224;29;1586;-79
2022/03/07 00:09:19;;;;;;;12.17;8.83;;;;;;;-1.56;76.21;101842.84;667618;29;4372;-79
2022/03/07 00:09:39;;;;;;;12.05;9.13;;;;;;;-1.61;75.34;101848.50;679931;29;1638;-79
2022/03/07 00:10:00;;;;;;;12.17;8.60;;;;;;;-1.63;76.17;101838.13;676635;28;2007;-79
2022/03/07 00:10:20;;;;;;;11.60;8.60;;;;;;;-1.64;76.59;101846.59;679736;29;920;-79
2022/03/07 00:10:40;;;;;;;12.63;9.03;;;;;;;-1.64;75.80;101838.91;678316;28;4271;-79
2022/03/07 00:11:04;;;;;;;12.47;8.63;;;;;;;-1.58;74.97;101841.88;679557;28;1749;-79
2022/03/07 00:11:25;;;;;;;13.23;8.80;;;;;;;-1.51;74.53;101835.44;681708;28;1885;-78
2022/03/07 00:11:45;;;;;;;12.97;9.10;;;;;;;-1.50;76.82;101854.31;679608;29;1304;-79
2022/03/07 00:12:06;;;;;;;12.80;9.30;;;;;;;-1.55;78.37;101838.63;680296;28;1442;-79
2022/03/07 00:12:27;;;;;;;13.55;9.70;;;;;;;-1.62;78.21;101836.44;680554;28;4214;-79
2022/03/07 00:12:50;;;;;;;13.38;9.50;;;;;;;-1.62;77.16;101836.44;683503;28;1239;-79
2022/03/07 00:13:11;;;;;;;13.45;9.40;;;;;;;-1.65;77.78;101841.38;684490;28;1362;-79
2022/03/07 00:13:31;;;;;;;14.57;10.18;;;;;;;-1.67;78.24;101837.84;682099;28;4097;-79
2022/03/07 00:13:52;;;;;;;16.80;10.75;;;;;;;-1.70;78.11;101843.66;685728;28;2521;-78
2022/03/07 00:14:12;;;;;;;17.73;11.17;;;;;;;-1.74;76.58;101837.44;679047;28;1896;-78
2022/03/07 00:14:33;;;;;;;21.02;12.15;;;;;;;-1.71;75.71;101837.63;674953;29;1244;-78
2022/03/07 00:14:54;;;;;;;17.43;11.00;;;;;;;-1.67;74.63;101841.28;677370;29;1272;-80
2022/03/07 00:15:16;;;;;;;18.02;11.15;;;;;;;-1.63;74.54;101839.81;676603;28;4360;-78
2022/03/07 00:15:36;;;;;;;18.15;11.50;;;;;;;-1.64;77.41;101848.31;681211;28;1298;-79
2022/03/07 00:15:57;;;;;;;18.85;11.10;;;;;;;-1.71;77.00;101837.63;681748;28;1116;-79
2022/03/07 00:16:23;;;;;;;18.17;10.80;;;;;;;-1.72;76.93;101845.22;682597;28;3926;-79
2022/03/07 00:16:44;;;;;;;19.20;11.00;;;;;;;-1.73;76.51;101849.47;679655;29;1517;-78
2022/03/07 00:17:04;;;;;;;15.68;10.35;;;;;;;-1.73;75.62;101853.72;676696;29;1436;-79
2022/03/07 00:17:25;;;;;;;18.17;10.80;;;;;;;-1.72;75.82;101848.72;678517;29;1336;-79
2022/03/07 00:17:46;;;;;;;17.77;10.83;;;;;;;-1.69;76.58;101844.53;678737;29;980;-79
2022/03/07 00:18:09;;;;;;;16.77;10.95;;;;;;;-1.74;77.81;101854.53;677709;28;4380;-79
2022/03/07 00:18:30;;;;;;;14.98;10.05;;;;;;;-1.75;77.75;101838.22;678876;28;1101;-79
2022/03/07 00:18:51;;;;;;;14.88;10.25;;;;;;;-1.77;76.47;101859.47;683760;28;1330;-78
2022/03/07 00:19:12;;;;;;;16.73;10.85;;;;;;;-1.71;76.87;101858.16;685318;28;2461;-78
2022/03/07 00:19:33;;;;;;;17.40;11.43;;;;;;;-1.69;77.76;101862.50;682078;28;1504;-76
2022/03/07 00:19:54;;;;;;;17.88;11.57;;;;;;;-1.69;79.08;101841.97;680773;28;1539;-76
2022/03/07 00:20:22;;;;;;;17.95;11.70;;;;;;;-1.70;77.04;101853.94;680424;29;1412;-76
2022/03/07 00:20:42;;;;;;;16.90;11.37;;;;;;;-1.73;77.84;101834.09;677572;29;1420;-77
2022/03/07 00:21:05;;;;;;;17.30;11.00;;;;;;;-1.72;76.88;101842.66;680683;28;1334;-76
2022/03/07 00:21:26;;;;;;;18.15;11.10;;;;;;;-1.71;75.86;101837.63;671836;28;4312;-79
2022/03/07 00:21:47;;;;;;;18.13;10.98;;;;;;;-1.69;77.92;101870.19;679761;28;1344;-79
2022/03/07 00:22:08;;;;;;;18.07;11.13;;;;;;;-1.71;77.90;101864.97;679532;28;4157;-79
2022/03/07 00:22:35;;;;;;;18.08;11.00;;;;;;;-1.75;77.78;101861.31;680897;28;1451;-79
2022/03/07 00:22:55;;;;;;;16.88;11.02;;;;;;;-1.69;77.66;101862.50;679988;28;1393;-78
2022/03/07 00:23:16;;;;;;;21.00;11.98;;;;;;;-1.74;77.90;101860.53;680305;28;1391;-79
2022/03/07 00:23:37;;;;;;;20.42;12.18;;;;;;;-1.70;77.46;101843.66;679433;28;1521;-79
2022/03/07 00:24:00;;;;;;;19.63;11.77;;;;;;;-1.68;77.25;101852.34;681953;28;1191;-79
2022/03/07 00:24:20;;;;;;;19.13;11.20;;;;;;;-1.66;76.42;101844.72;681584;28;4301;-79
2022/03/07 00:24:41;;;;;;;22.03;11.93;;;;;;;-1.68;76.23;101838.63;679362;29;3094;-78
2022/03/07 00:25:02;;;;;;;21.38;12.38;;;;;;;-1.68;77.37;101846.31;674284;29;1595;-80
2022/03/07 00:25:25;;;;;;;20.23;12.70;;;;;;;-1.67;76.70;101853.25;676147;29;2283;-76
2022/03/07 00:25:47;;;;;;;20.77;12.73;;;;;;;-1.66;77.78;101867.81;676306;29;1388;-76
2022/03/07 00:26:08;;;;;;;23.27;12.93;;;;;;;-1.72;77.65;101865.75;677102;29;1173;-76
2022/03/07 00:26:29;;;;;;;29.40;14.90;;;;;;;-1.72;78.00;101834.97;679670;29;1309;-77
2022/03/07 00:26:51;;;;;;;30.33;15.60;;;;;;;-1.76;79.57;101836.47;679494;28;1318;-81
2022/03/07 00:27:15;;;;;;;39.53;20.38;;;;;;;-1.78;77.85;101861.13;678932;28;4356;-79
2022/03/07 00:27:38;;;;;;;43.20;21.70;;;;;;;-1.80;78.60;101872.06;681427;28;2331;-79
2022/03/07 00:27:59;;;;;;;37.53;19.67;;;;;;;-1.81;77.43;101845.53;681749;28;1830;-79
2022/03/07 00:28:19;;;;;;;32.00;16.95;;;;;;;-1.80;77.83;101855.00;682418;28;2662;-79
2022/03/07 00:28:40;;;;;;;32.53;17.02;;;;;;;-1.79;78.74;101874.72;681595;28;1504;-78
2022/03/07 00:29:01;;;;;;;31.63;16.50;;;;;;;-1.76;78.22;101881.72;683028;28;1120;-79
2022/03/07 00:29:24;;;;;;;30.55;16.13;;;;;;;-1.75;78.78;101856.16;682970;28;1421;-79
2022/03/07 00:29:48;;;;;;;32.53;17.10;;;;;;;-1.76;79.51;101843.25;683252;28;1980;-79
2022/03/07 00:30:09;;;;;;;30.58;15.88;;;;;;;-1.73;78.28;101861.41;679936;28;4364;-79
2022/03/07 00:30:30;;;;;;;28.30;15.45;;;;;;;-1.73;79.91;101870.00;678330;29;2252;-81
2022/03/07 00:31:14;;;;;;;27.63;15.93;;;;;;;-1.74;79.87;101841.69;674184;29;4201;-79
2022/03/07 00:31:35;;;;;;;22.98;14.40;;;;;;;-1.73;79.01;101848.56;675441;29;1348;-80
2022/03/07 00:31:58;;;;;;;20.02;14.02;;;;;;;-1.79;78.54;101838.81;678560;29;1310;-80
2022/03/07 00:32:21;;;;;;;20.98;14.63;;;;;;;-1.78;78.39;101855.97;681328;28;896;-79
2022/03/07 00:32:42;;;;;;;19.47;14.27;;;;;;;-1.79;78.48;101864.44;682640;28;1069;-79
2022/03/07 00:33:03;;;;;;;19.95;14.52;;;;;;;-1.79;78.73;101882.41;680648;28;1513;-79
2022/03/07 00:33:24;;;;;;;22.70;14.73;;;;;;;-1.80;78.71;101865.28;676566;29;4308;-80
2022/03/07 00:33:51;;;;;;;26.00;15.27;;;;;;;-1.73;78.33;101866.53;678217;28;3801;-78
2022/03/07 00:34:12;;;;;;;23.77;15.43;;;;;;;-1.69;77.57;101855.69;681261;28;1766;-79
2022/03/07 00:34:33;;;;;;;25.00;15.68;;;;;;;-1.71;80.01;101849.59;677461;29;1330;-76
2022/03/07 00:34:54;;;;;;;22.52;15.75;;;;;;;-1.75;78.87;101839.91;673639;29;1407;-76
2022/03/07 00:35:18;;;;;;;21.17;16.52;;;;;;;-1.73;77.78;101844.34;677214;29;1398;-79
2022/03/07 00:35:41;;;;;;;19.48;15.13;;;;;;;-1.79;79.53;101859.31;681954;28;1676;-79
2022/03/07 00:36:06;;;;;;;18.88;15.07;;;;;;;-1.80;79.01;101864.34;681562;28;2049;-78
2022/03/07 00:36:27;;;;;;;18.35;14.52;;;;;;;-1.81;78.18;101842.09;682547;28;4383;-79
2022/03/07 00:36:50;;;;;;;19.08;14.70;;;;;;;-1.77;78.43;101878.28;684138;28;3840;-79
2022/03/07 00:37:11;;;;;;;19.73;14.85;;;;;;;-1.72;77.14;101843.56;681017;28;1571;-79
2022/03/07 00:37:34;;;;;;;18.13;13.38;;;;;;;-1.72;79.40;101860.63;682071;28;1660;-79
2022/03/07 00:37:55;;;;;;;20.17;15.23;;;;;;;-1.72;79.04;101846.13;682963;28;838;-78
2022/03/07 00:38:22;;;;;;;19.30;15.10;;;;;;;-1.70;76.81;101871.88;681028;28;1330;-79
2022/03/07 00:38:43;;;;;;;18.77;13.60;;;;;;;-1.69;79.04;101845.41;680131;29;1365;-78
2022/03/07 00:39:03;;;;;;;17.63;12.87;;;;;;;-1.74;78.67;101842.56;681481;28;3544;-79
2022/03/07 00:39:29;;;;;;;14.13;11.05;;;;;;;-1.76;78.04;101874.03;671679;28;4479;-79
2022/03/07 00:39:51;;;;;;;14.20;11.27;;;;;;;-1.74;77.74;101841.69;680385;28;1694;-79
2022/03/07 00:40:11;;;;;;;15.25;11.40;;;;;;;-1.76;77.97;101867.25;681193;28;1723;-79
2022/03/07 00:40:41;;;;;;;13.73;10.23;;;;;;;-1.79;77.30;101849.06;677525;29;1170;-79
2022/03/07 00:41:11;;;;;;;13.88;10.63;;;;;;;-1.77;78.60;101864.59;675352;29;1709;-78
2022/03/07 00:41:31;;;;;;;14.90;11.20;;;;;;;-1.74;78.29;101847.69;679250;29;1230;-79
2022/03/07 00:41:52;;;;;;;15.27;11.27;;;;;;;-1.72;79.31;101853.84;677881;28;2038;-80
2022/03/07 00:42:12;;;;;;;14.90;11.75;;;;;;;-1.78;77.58;101867.94;680008;28;4407;-78
2022/03/07 00:42:33;;;;;;;15.00;11.18;;;;;;;-1.77;76.16;101860.34;680182;28;1742;-80
2022/03/07 00:42:57;;;;;;;13.02;9.75;;;;;;;-1.78;76.45;101878.19;678580;29;1418;-79
2022/03/07 00:43:18;;;;;;;13.07;9.65;;;;;;;-1.77;77.41;101850.06;679502;29;1112;-77
2022/03/07 00:43:39;;;;;;;12.10;9.57;;;;;;;-1.80;76.78;101867.84;678282;29;1369;-77
2022/03/07 00:44:00;;;;;;;11.70;9.27;;;;;;;-1.76;77.37;101846.72;677876;28;1169;-77
2022/03/07 00:44:21;;;;;;;11.65;9.05;;;;;;;-1.74;77.86;101872.47;680521;28;928;-79
2022/03/07 00:44:47;;;;;;;13.82;9.95;;;;;;;-1.73;78.44;101856.28;684334;28;1782;-79
2022/03/07 00:45:10;;;;;;;12.38;9.80;;;;;;;-1.70;76.17;101874.44;680654;28;4387;-80
2022/03/07 00:45:31;;;;;;;14.82;9.82;;;;;;;-1.70;77.90;101874.44;680925;28;4938;-79
2022/03/07 00:45:52;;;;;;;14.00;10.07;;;;;;;-1.75;79.73;101851.03;678586;29;1148;-79
2022/03/07 00:46:13;;;;;;;12.82;9.43;;;;;;;-1.76;78.43;101874.03;677515;29;1417;-79
2022/03/07 00:46:34;;;;;;;12.03;9.03;;;;;;;-1.76;77.49;101845.81;677900;29;1417;-79
2022/03/07 00:46:57;;;;;;;11.57;9.27;;;;;;;-1.75;77.85;101851.03;677446;29;1347;-79
2022/03/07 00:47:18;;;;;;;12.02;9.40;;;;;;;-1.71;76.61;101863.28;677867;29;1355;-79
2022/03/07 00:47:39;;;;;;;12.45;9.15;;;;;;;-1.67;77.61;101860.94;676113;28;3511;-79
2022/03/07 00:48:02;;;;;;;13.07;9.70;;;;;;;-1.69;80.22;101880.44;679500;28;1397;-79
2022/03/07 00:48:23;;;;;;;11.98;9.10;;;;;;;-1.63;77.35;101861.22;673861;28;4299;-79
2022/03/07 00:48:44;;;;;;;11.77;8.83;;;;;;;-1.64;79.63;101848.31;679464;29;1732;-79
2022/03/07 00:49:05;;;;;;;12.50;9.40;;;;;;;-1.65;77.71;101846.53;682805;28;990;-79
2022/03/07 00:49:25;;;;;;;12.55;9.35;;;;;;;-1.62;77.80;101844.13;682033;28;1159;-79
2022/03/07 00:49:46;;;;;;;13.13;9.20;;;;;;;-1.65;76.87;101842.25;682403;28;1915;-79
2022/03/07 00:50:09;;;;;;;11.82;9.40;;;;;;;-1.62;77.59;101847.63;681639;28;1398;-79
2022/03/07 00:50:30;;;;;;;12.50;9.13;;;;;;;-1.64;76.84;101850.88;683086;28;4511;-79
2022/03/07 00:50:52;;;;;;;11.80;8.50;;;;;;;-1.63;76.41;101844.97;681924;28;1692;-80
2022/03/07 00:51:13;;;;;;;10.68;7.88;;;;;;;-1.62;77.01;101877.47;674044;28;4293;-79
2022/03/07 00:51:34;;;;;;;10.88;7.70;;;;;;;-1.61;77.23;101879.25;680225;28;1350;-79
2022/03/07 00:51:57;;;;;;;11.13;7.35;;;;;;;-1.62;76.81;101872.34;679632;28;1573;-79
2022/03/07 00:52:17;;;;;;;11.60;8.07;;;;;;;-1.64;78.12;101863.69;681788;28;1377;-79
2022/03/07 00:52:40;;;;;;;10.82;8.15;;;;;;;-1.63;76.73;101858.66;681928;28;1565;-78
2022/03/07 00:53:04;;;;;;;10.80;7.90;;;;;;;-1.65;77.49;101843.94;676300;29;2772;-79
2022/03/07 00:53:30;;;;;;;10.55;7.47;;;;;;;-1.65;77.69;101842.25;679539;28;4048;-79
2022/03/07 00:53:51;;;;;;;10.68;7.53;;;;;;;-1.61;76.47;101854.50;680981;28;1642;-79
2022/03/07 00:54:12;;;;;;;10.30;7.47;;;;;;;-1.61;75.54;101857.06;677861;28;4375;-79
2022/03/07 00:54:36;;;;;;;10.25;7.70;;;;;;;-1.59;77.50;101847.81;673887;29;1317;-79
2022/03/07 00:54:56;;;;;;;10.13;7.35;;;;;;;-1.60;75.35;101850.28;679039;29;1405;-79
2022/03/07 00:55:20;;;;;;;10.45;6.97;;;;;;;-1.60;75.00;101846.03;685476;28;1165;-80
2022/03/07 00:55:41;;;;;;;11.57;7.32;;;;;;;-1.59;74.47;101841.78;684609;28;1352;-78
2022/03/07 00:56:03;;;;;;;10.05;7.18;;;;;;;-1.59;74.88;101849.50;681917;28;3939;-77
2022/03/07 00:56:23;;;;;;;9.80;7.00;;;;;;;-1.56;74.30;101848.00;676414;29;4604;-77
2022/03/07 00:56:44;;;;;;;10.30;7.32;;;;;;;-1.55;75.36;101851.47;673387;29;2054;-77
2022/03/07 00:57:05;;;;;;;10.90;7.30;;;;;;;-1.55;76.65;101851.47;677212;29;1411;-77
2022/03/07 00:57:25;;;;;;;10.07;6.78;;;;;;;-1.56;75.03;101852.25;681898;28;4367;-77
2022/03/07 00:57:46;;;;;;;9.87;6.87;;;;;;;-1.56;74.48;101857.38;679834;28;1202;-77
2022/03/07 00:58:06;;;;;;;10.60;7.00;;;;;;;-1.56;75.77;101855.69;678352;28;1548;-78
2022/03/07 00:58:30;;;;;;;10.68;7.00;;;;;;;-1.56;75.69;101847.13;682705;28;1478;-77
2022/03/07 00:58:51;;;;;;;8.95;6.75;;;;;;;-1.54;75.59;101853.22;682057;28;3757;-77
2022/03/07 00:59:11;;;;;;;9.63;6.77;;;;;;;-1.54;74.55;101855.78;682502;28;4194;-77
2022/03/07 00:59:32;;;;;;;9.57;6.55;;;;;;;-1.53;74.60;101856.69;682457;28;1852;-77
2022/03/07 00:59:53;;;;;;;9.18;6.85;;;;;;;-1.51;74.57;101855.09;684049;28;1505;-77
2022/03/07 01:00:14;;;;;;;10.00;6.93;;;;;;;-1.52;74.31;101853.31;676912;28;4445;-77
2022/03/07 01:00:37;;;;;;;10.10;6.70;;;;;;;-1.53;73.96;101861.81;677997;29;1027;-76
2022/03/07 01:00:58;;;;;;;8.52;6.18;;;;;;;-1.48;73.95;101876.69;675928;29;1327;-77
2022/03/07 01:01:18;;;;;;;8.75;6.38;;;;;;;-1.47;73.68;101851.94;676077;29;1413;-77
2022/03/07 01:01:39;;;;;;;10.33;6.90;;;;;;;-1.46;75.11;101867.41;677708;29;3851;-78
2022/03/07 01:01:59;;;;;;;9.65;6.75;;;;;;;-1.44;74.29;101853.03;674398;29;4146;-77
2022/03/07 01:02:20;;;;;;;8.73;6.35;;;;;;;-1.44;76.42;101853.03;675416;29;1457;-77
2022/03/07 01:02:41;;;;;;;8.40;6.50;;;;;;;-1.44;76.21;101853.03;677568;29;1188;-77
2022/03/07 01:03:03;;;;;;;9.30;6.83;;;;;;;-1.45;74.87;101850.38;679296;28;1419;-78
2022/03/07 01:03:23;;;;;;;8.95;6.90;;;;;;;-1.44;76.68;101854.69;678416;29;4342;-77
2022/03/07 01:03:47;;;;;;;8.90;6.43;;;;;;;-1.46;74.46;101849.47;673759;29;1177;-77
2022/03/07 01:04:07;;;;;;;8.95;6.65;;;;;;;-1.46;73.83;101853.72;676585;29;1330;-77
2022/03/07 01:04:27;;;;;;;9.82;6.90;;;;;;;-1.45;74.91;101861.50;674980;29;3176;-77
2022/03/07 01:04:50;;;;;;;10.10;6.67;;;;;;;-1.45;74.56;101851.25;678162;29;4541;-78
2022/03/07 01:05:11;;;;;;;9.45;6.47;;;;;;;-1.45;74.05;101846.09;679574;28;1563;-77
2022/03/07 01:05:32;;;;;;;7.88;6.22;;;;;;;-1.44;73.93;101852.13;681045;28;1146;-78
2022/03/07 01:05:53;;;;;;;8.13;6.37;;;;;;;-1.42;73.72;101853.13;682245;28;1254;-77
2022/03/07 01:06:15;;;;;;;8.77;6.10;;;;;;;-1.42;74.35;101856.56;681836;28;4382;-77
2022/03/07 01:06:35;;;;;;;8.73;6.32;;;;;;;-1.43;74.53;101849.63;679145;29;1155;-78
2022/03/07 01:06:56;;;;;;;9.20;6.65;;;;;;;-1.43;73.75;101854.78;679677;29;1182;-78
2022/03/07 01:07:16;;;;;;;9.30;6.53;;;;;;;-1.43;73.67;101847.06;679879;28;3525;-77
2022/03/07 01:07:37;;;;;;;9.52;6.70;;;;;;;-1.42;75.17;101850.56;679440;29;2950;-81
2022/03/07 01:07:58;;;;;;;8.63;6.43;;;;;;;-1.42;75.11;101850.56;677348;29;1688;-77
2022/03/07 01:08:22;;;;;;;9.43;6.50;;;;;;;-1.43;75.33;101853.91;673408;29;1405;-78
2022/03/07 01:08:43;;;;;;;9.60;6.55;;;;;;;-1.42;75.44;101859.13;676718;29;1257;-77
2022/03/07 01:09:03;;;;;;;9.95;6.78;;;;;;;-1.40;74.40;101856.66;675247;29;1166;-77
2022/03/07 01:09:26;;;;;;;8.60;6.23;;;;;;;-1.42;73.65;101866.81;674219;29;4397;-77
2022/03/07 01:09:47;;;;;;;9.18;6.30;;;;;;;-1.41;73.84;101860.91;679744;29;1984;-76
2022/03/07 01:10:10;;;;;;;9.60;6.22;;;;;;;-1.42;73.53;101858.25;676578;29;3775;-77
2022/03/07 01:10:31;;;;;;;9.45;6.43;;;;;;;-1.40;74.95;101890.91;676842;29;1506;-77
2022/03/07 01:10:53;;;;;;;8.57;6.00;;;;;;;-1.38;75.50;101855.97;677270;29;1952;-77
2022/03/07 01:11:19;;;;;;;8.20;6.00;;;;;;;-1.37;73.80;101864.56;681355;28;1379;-77
2022/03/07 01:11:42;;;;;;;8.38;6.00;;;;;;;-1.37;75.50;101879.97;677022;29;1683;-77
2022/03/07 01:12:06;;;;;;;8.68;6.10;;;;;;;-1.38;76.23;101873.03;677593;28;1429;-77
2022/03/07 01:12:27;;;;;;;8.48;6.28;;;;;;;-1.37;75.64;101865.44;673283;29;4361;-79
2022/03/07 01:12:47;;;;;;;8.77;6.30;;;;;;;-1.34;74.79;101877.56;674957;29;1321;-77
2022/03/07 01:13:08;;;;;;;8.60;6.20;;;;;;;-1.35;75.85;101849.25;673091;29;4031;-77
2022/03/07 01:13:29;;;;;;;9.07;6.33;;;;;;;-1.35;74.43;101862.97;674699;29;1612;-77
2022/03/07 01:13:52;;;;;;;8.20;6.07;;;;;;;-1.37;74.14;101856.88;673768;29;1703;-77
2022/03/07 01:14:13;;;;;;;8.60;6.20;;;;;;;-1.34;73.78;101854.47;676792;29;1362;-77
2022/03/07 01:14:34;;;;;;;9.63;6.30;;;;;;;-1.36;76.38;101861.19;676115;29;1165;-77
2022/03/07 01:14:55;;;;;;;10.50;6.60;;;;;;;-1.37;76.33;101870.56;678568;29;1294;-77
2022/03/07 01:15:15;;;;;;;9.33;6.30;;;;;;;-1.37;74.01;101864.56;677341;28;4341;-77
2022/03/07 01:15:36;;;;;;;9.82;6.30;;;;;;;-1.38;74.46;101855.97;677765;29;1161;-77
2022/03/07 01:15:57;;;;;;;9.95;6.25;;;;;;;-1.39;76.69;101861.88;679421;29;3481;-77
2022/03/07 01:16:17;;;;;;;9.17;6.03;;;;;;;-1.38;75.37;101858.53;672013;29;3433;-77
2022/03/07 01:16:37;;;;;;;9.45;6.00;;;;;;;-1.37;76.71;101860.31;676812;29;1290;-77
2022/03/07 01:17:00;;;;;;;9.03;6.43;;;;;;;-1.39;74.56;101861.88;676365;29;1232;-77
2022/03/07 01:17:21;;;;;;;8.52;6.40;;;;;;;-1.39;74.11;101858.44;679929;29;1245;-77
2022/03/07 01:17:42;;;;;;;8.60;6.30;;;;;;;-1.39;74.87;101874.69;675494;28;1155;-77
2022/03/07 01:18:05;;;;;;;9.27;6.30;;;;;;;-1.38;74.11;101863.66;675112;29;1277;-77
2022/03/07 01:18:25;;;;;;;8.48;6.03;;;;;;;-1.38;75.89;101866.22;674252;29;5939;-77
2022/03/07 01:18:45;;;;;;;8.77;6.10;;;;;;;-1.40;73.51;101859.22;678957;28;3844;-77
2022/03/07 01:19:08;;;;;;;7.75;5.82;;;;;;;-1.39;73.56;101861.88;680784;28;2845;-77
2022/03/07 01:19:28;;;;;;;8.95;6.10;;;;;;;-1.35;72.92;101859.53;680231;28;1438;-77
2022/03/07 01:19:49;;;;;;;9.30;6.10;;;;;;;-1.35;73.32;101849.25;678292;28;1500;-77
2022/03/07 01:20:11;;;;;;;9.00;5.90;;;;;;;-1.37;73.00;101855.16;680714;28;1168;-77
2022/03/07 01:20:34;;;;;;;8.95;6.00;;;;;;;-1.37;73.14;101857.75;675622;29;1239;-77
2022/03/07 01:20:54;;;;;;;8.70;6.05;;;;;;;-1.38;73.77;101855.97;678235;29;993;-77
2022/03/07 01:21:15;;;;;;;8.20;6.00;;;;;;;-1.37;74.31;101855.16;681154;28;4627;-77
2022/03/07 01:21:38;;;;;;;8.02;6.07;;;;;;;-1.36;73.87;101856.03;681224;28;4003;-77
2022/03/07 01:21:59;;;;;;;8.85;5.80;;;;;;;-1.33;72.73;101850.22;684833;28;1948;-77
2022/03/07 01:22:19;;;;;;;8.57;5.93;;;;;;;-1.33;75.41;101851.13;681884;28;4093;-79
2022/03/07 01:22:42;;;;;;;8.97;6.10;;;;;;;-1.33;74.54;101855.34;677607;29;1585;-77
2022/03/07 01:23:03;;;;;;;9.82;6.20;;;;;;;-1.33;75.02;101857.94;677967;29;1426;-77
2022/03/07 01:23:24;;;;;;;9.68;6.20;;;;;;;-1.34;74.56;101853.56;676763;29;2134;-77
2022/03/07 01:23:47;;;;;;;9.73;6.30;;;;;;;-1.34;74.15;101851.00;676612;29;1281;-77
2022/03/07 01:24:07;;;;;;;9.97;5.90;;;;;;;-1.33;74.31;101857.94;676380;29;1378;-77
2022/03/07 01:24:30;;;;;;;9.00;5.82;;;;;;;-1.32;73.23;101844.31;679299;28;4991;-77
2022/03/07 01:24:53;;;;;;;8.25;5.50;;;;;;;-1.30;74.19;101847.84;682219;28;1534;-77
2022/03/07 01:25:17;;;;;;;7.78;5.57;;;;;;;-1.30;72.55;101845.28;681214;28;1292;-77
2022/03/07 01:25:38;;;;;;;8.82;5.80;;;;;;;-1.31;73.72;101852.09;683812;28;894;-77
2022/03/07 01:25:58;;;;;;;8.52;5.80;;;;;;;-1.30;72.63;101866.72;686540;28;1416;-77
2022/03/07 01:26:19;;;;;;;9.30;6.00;;;;;;;-1.29;74.41;101852.19;685735;28;1534;-77
2022/03/07 01:26:40;;;;;;;8.93;6.20;;;;;;;-1.32;73.54;101877.66;682980;28;1384;-76
2022/03/07 01:27:00;;;;;;;8.52;6.30;;;;;;;-1.30;74.33;101863.25;682281;28;2955;-77
2022/03/07 01:27:21;;;;;;;8.05;5.90;;;;;;;-1.32;74.60;101844.31;675695;28;4276;-77
2022/03/07 01:27:42;;;;;;;7.80;6.00;;;;;;;-1.37;76.38;101868.00;683623;28;1400;-77
2022/03/07 01:28:02;;;;;;;7.88;5.93;;;;;;;-1.39;74.15;101869.56;681920;28;1498;-77
2022/03/07 01:28:23;;;;;;;8.00;5.60;;;;;;;-1.39;75.98;101856.75;681626;28;1511;-77
2022/03/07 01:28:48;;;;;;;7.77;5.33;;;;;;;-1.34;75.64;101864.75;682748;28;1419;-77
2022/03/07 01:29:12;;;;;;;8.13;5.53;;;;;;;-1.31;73.66;101866.63;681557;28;1258;-78
2022/03/07 01:29:32;;;;;;;8.55;6.10;;;;;;;-1.38;73.30;101840.56;679354;29;1201;-77
2022/03/07 01:29:53;;;;;;;8.27;6.00;;;;;;;-1.38;73.44;101876.47;679441;28;3442;-77
2022/03/07 01:30:16;;;;;;;8.83;5.63;;;;;;;-1.41;73.49;101867.72;679652;28;4383;-77
2022/03/07 01:30:37;;;;;;;8.73;5.80;;;;;;;-1.40;73.11;101865.25;679013;29;2443;-77
2022/03/07 01:30:58;;;;;;;9.10;5.80;;;;;;;-1.41;72.82;101881.41;676032;28;1703;-77
2022/03/07 01:31:21;;;;;;;9.35;5.93;;;;;;;-1.41;75.52;101842.94;676287;29;1616;-77
2022/03/07 01:31:42;;;;;;;8.43;5.97;;;;;;;-1.44;74.73;101878.66;677963;29;1229;-77
2022/03/07 01:32:03;;;;;;;7.47;5.70;;;;;;;-1.41;73.96;101847.19;672523;29;1223;-77
2022/03/07 01:32:24;;;;;;;8.43;6.00;;;;;;;-1.41;74.87;101842.06;673780;29;1457;-77
2022/03/07 01:32:47;;;;;;;8.90;5.90;;;;;;;-1.44;74.03;101860.72;676838;29;3758;-77
2022/03/07 01:33:08;;;;;;;7.72;5.78;;;;;;;-1.43;74.07;101877.84;678555;28;4381;-77
2022/03/07 01:33:34;;;;;;;8.13;5.60;;;;;;;-1.43;74.11;101849.63;677363;29;4473;-77
2022/03/07 01:33:57;;;;;;;8.30;5.63;;;;;;;-1.44;73.72;101863.28;678786;29;1336;-77
2022/03/07 01:34:18;;;;;;;7.38;5.43;;;;;;;-1.41;73.75;101853.22;679439;28;1316;-78
2022/03/07 01:34:38;;;;;;;8.15;5.75;;;;;;;-1.41;75.82;101848.06;681878;28;1259;-77
2022/03/07 01:34:59;;;;;;;8.23;6.07;;;;;;;-1.42;74.35;101848.84;680208;28;1289;-77
2022/03/07 01:35:20;;;;;;;7.50;5.40;;;;;;;-1.42;73.46;101841.16;676380;29;995;-77
2022/03/07 01:35:40;;;;;;;7.70;5.50;;;;;;;-1.41;74.32;101847.19;674733;29;4220;-77
2022/03/07 01:36:04;;;;;;;8.30;5.50;;;;;;;-1.44;73.59;101832.50;677083;29;1571;-77
2022/03/07 01:36:24;;;;;;;7.78;5.68;;;;;;;-1.43;73.64;101839.38;675184;29;4389;-78
2022/03/07 01:36:45;;;;;;;13.57;6.07;;;;;;;-1.41;72.92;101835.25;676523;29;1007;-77
2022/03/07 01:37:08;;;;;;;13.68;5.95;;;;;;;-1.40;72.58;101849.84;675976;29;1540;-80
2022/03/07 01:37:29;;;;;;;7.72;5.70;;;;;;;-1.41;73.76;101842.06;676608;29;1336;-79
2022/03/07 01:37:49;;;;;;;7.22;5.43;;;;;;;-1.40;74.10;101849.84;674664;29;1237;-77
2022/03/07 01:38:10;;;;;;;7.63;5.50;;;;;;;-1.42;73.04;101846.28;676311;29;1291;-77
2022/03/07 01:38:31;;;;;;;8.07;5.50;;;;;;;-1.43;72.47;101857.34;674036;29;3327;-78
2022/03/07 01:38:54;;;;;;;7.18;5.45;;;;;;;-1.43;74.47;101865.03;678163;28;1772;-77
2022/03/07 01:39:17;;;;;;;7.90;5.40;;;;;;;-1.44;73.86;101835.06;680647;28;4905;-77
2022/03/07 01:39:40;;;;;;;7.73;5.67;;;;;;;-1.43;75.32;101847.06;679351;28;1195;-78
2022/03/07 01:40:01;;;;;;;8.07;5.75;;;;;;;-1.44;74.00;101841.84;680832;28;1341;-77
2022/03/07 01:40:21;;;;;;;7.83;5.53;;;;;;;-1.44;73.64;101840.19;681074;28;1288;-77
2022/03/07 01:40:45;;;;;;;8.13;5.75;;;;;;;-1.41;72.65;101837.81;678281;29;1277;-77
2022/03/07 01:41:06;;;;;;;7.97;5.30;;;;;;;-1.43;72.38;101839.38;673837;29;1391;-77
2022/03/07 01:41:26;;;;;;;7.53;5.30;;;;;;;-1.44;72.64;101840.19;677244;29;4256;-77
2022/03/07 01:41:47;;;;;;;7.17;5.37;;;;;;;-1.46;73.29;101843.44;678462;28;2953;-78
2022/03/07 01:42:10;;;;;;;8.02;5.60;;;;;;;-1.45;72.41;101835.84;679236;28;1918;-78